Time;durP1;ratioP1;P1;durP2;ratioP2;P2;SDS_P1;SDS_P2;PMS_P1;PMS_P2;Temp;Humidity;BMP_temperature;BMP_pressure;BME280_temperature;BME280_humidity;BME280_pressure;Samples;Min_cycle;Max_cycle;Signal;HPM_P1;HPM_P2
2023/03/28 00:01:07;;;;;;;0.70;0.70;;;;;;;1.28;63.52;98861.09;4454161;32;35191;-75
2023/03/28 00:03:38;;;;;;;0.70;0.70;;;;;;;1.54;62.88;98868.41;4454150;32;34733;-75
2023/03/28 00:06:15;;;;;;;0.70;0.70;;;;;;;1.40;63.41;98870.72;4454184;32;34431;-75
2023/03/28 00:08:44;;;;;;;;;;;;;;;1.17;64.62;98872.87;4455651;32;33426;-75
2023/03/28 00:11:18;;;;;;;0.70;0.70;;;;;;;1.32;63.65;98877.41;4454090;32;34266;-75
2023/03/28 00:13:52;;;;;;;0.70;0.70;;;;;;;1.18;63.65;98886.53;4454099;32;35115;-75
2023/03/28 00:16:20;;;;;;;0.70;0.70;;;;;;;1.51;63.15;98883.75;4454080;32;34536;-76
2023/03/28 00:18:49;;;;;;;0.70;0.70;;;;;;;1.32;63.29;98882.53;4454387;32;33482;-75
2023/03/28 00:21:22;;;;;;;0.70;0.70;;;;;;;1.41;63.21;98881.84;4455206;32;33888;-74
2023/03/28 00:23:52;;;;;;;0.70;0.70;;;;;;;1.34;63.30;98888.56;4455109;32;35776;-75
2023/03/28 00:26:23;;;;;;;0.75;0.75;;;;;;;1.28;63.30;98891.88;4455080;32;35272;-74
2023/03/28 00:28:53;;;;;;;0.70;0.70;;;;;;;1.30;63.00;98890.19;4454093;32;34284;-75
2023/03/28 00:31:22;;;;;;;0.70;0.70;;;;;;;1.40;63.13;98890.41;4453999;32;33491;-75
2023/03/28 00:33:51;;;;;;;1.00;1.00;;;;;;;1.27;63.42;98890.16;4455394;32;35030;-75
2023/03/28 00:36:21;;;;;;;0.90;0.90;;;;;;;1.28;63.08;98891.03;4454868;32;34673;-76
2023/03/28 00:38:53;;;;;;;0.70;0.70;;;;;;;0.93;64.19;98891.19;4455104;32;32694;-75
2023/03/28 00:41:22;;;;;;;0.90;0.90;;;;;;;1.03;63.60;98890.53;4455108;32;34775;-74
2023/03/28 00:43:53;;;;;;;4.47;1.17;;;;;;;1.07;63.42;98896.59;4453820;32;35151;-75
2023/03/28 00:46:29;;;;;;;5.30;5.03;;;;;;;0.96;63.77;98904.06;4441429;32;35311;-76
2023/03/28 00:49:20;;;;;;;0.70;0.70;;;;;;;1.48;62.56;98907.66;4453933;32;33541;-73
2023/03/28 00:52:02;;;;;;;0.70;0.70;;;;;;;1.29;63.18;98911.56;4453661;32;34808;-74
2023/03/28 00:54:33;;;;;;;4.03;3.17;;;;;;;1.39;62.71;98924.56;4453778;32;34902;-75
2023/03/28 00:57:01;;;;;;;0.68;0.68;;;;;;;1.31;63.02;98922.72;4453820;32;35291;-75
2023/03/28 00:59:32;;;;;;;0.70;0.70;;;;;;;1.28;63.52;98932.06;4453812;32;33376;-74
2023/03/28 01:02:00;;;;;;;0.70;0.70;;;;;;;1.60;62.76;98940.38;4453841;32;33995;-75
2023/03/28 01:04:56;;;;;;;0.70;0.70;;;;;;;1.42;63.05;98937.47;4453751;32;34999;-75
2023/03/28 01:07:25;;;;;;;0.80;0.80;;;;;;;1.36;63.64;98934.75;4454116;32;34517;-75
2023/03/28 01:09:54;;;;;;;0.70;0.70;;;;;;;1.33;64.06;98950.97;4453907;32;34157;-75
2023/03/28 01:12:22;;;;;;;0.70;0.70;;;;;;;1.39;64.09;98945.94;4455141;32;34773;-74
2023/03/28 01:14:51;;;;;;;1.42;1.37;;;;;;;0.98;65.35;98952.81;4453952;32;34939;-75
2023/03/28 01:17:20;;;;;;;0.70;0.70;;;;;;;1.31;64.68;98947.53;4441121;32;33694;-75
2023/03/28 01:19:58;;;;;;;0.70;0.70;;;;;;;0.88;66.51;98950.06;4453685;32;33370;-75
2023/03/28 01:22:39;;;;;;;0.70;0.70;;;;;;;0.96;66.61;98946.78;4454781;32;34032;-75
2023/03/28 01:25:34;;;;;;;0.70;0.70;;;;;;;1.06;66.03;98953.81;4455022;32;35034;-74
2023/03/28 01:28:21;;;;;;;0.70;0.70;;;;;;;1.20;66.15;98955.00;4454471;32;35216;-74
2023/03/28 01:31:26;;;;;;;0.70;0.70;;;;;;;1.22;65.96;98953.31;4455042;32;33703;-75
2023/03/28 01:34:26;;;;;;;0.77;0.77;;;;;;;1.04;67.37;98963.19;4455002;32;33913;-75
2023/03/28 01:37:04;;;;;;;0.70;0.70;;;;;;;0.89;68.73;98964.59;4454596;32;35112;-74
2023/03/28 01:39:39;;;;;;;0.70;0.70;;;;;;;0.93;68.37;98976.62;4453845;32;34236;-75
2023/03/28 01:42:26;;;;;;;0.70;0.70;;;;;;;0.99;68.89;98985.28;4454723;32;34281;-76
2023/03/28 01:45:17;;;;;;;0.60;0.60;;;;;;;0.62;70.38;98979.34;4453741;32;33943;-75
2023/03/28 01:47:54;;;;;;;0.70;0.70;;;;;;;0.84;69.90;98986.69;4454552;32;34949;-75
2023/03/28 01:50:30;;;;;;;1.15;1.15;;;;;;;0.68;71.37;98992.31;4454569;32;34565;-75
2023/03/28 01:53:36;;;;;;;0.80;0.80;;;;;;;0.52;72.45;98998.75;4428246;32;32227;-75
2023/03/28 01:56:29;;;;;;;0.80;0.80;;;;;;;0.70;72.15;99000.88;4406109;32;33934;-75
2023/03/28 01:59:16;;;;;;;0.90;0.90;;;;;;;0.80;72.16;98995.16;4453602;32;35151;-75
2023/03/28 02:02:18;;;;;;;0.70;0.70;;;;;;;0.48;73.45;99002.94;4454698;32;34582;-74
2023/03/28 02:04:48;;;;;;;0.70;0.70;;;;;;;1.18;71.11;99007.94;4454639;32;34122;-75
2023/03/28 02:07:19;;;;;;;0.70;0.70;;;;;;;0.80;72.37;99013.09;4453204;32;33882;-76
2023/03/28 02:09:55;;;;;;;0.70;0.70;;;;;;;0.63;72.79;99022.94;4441192;32;35807;-75
2023/03/28 02:12:27;;;;;;;0.70;0.70;;;;;;;0.67;73.70;99029.00;4453146;32;35092;-75
2023/03/28 02:14:57;;;;;;;0.70;0.70;;;;;;;0.75;74.12;99035.19;4453315;32;34042;-75
2023/03/28 02:17:27;;;;;;;0.70;0.70;;;;;;;0.79;73.66;99031.00;4453216;32;33962;-74
2023/03/28 02:20:07;;;;;;;0.80;0.80;;;;;;;0.74;74.13;99036.00;4453124;32;36013;-75
2023/03/28 02:22:44;;;;;;;1.15;1.10;;;;;;;0.87;73.65;99032.91;4453362;32;34311;-75
2023/03/28 02:25:14;;;;;;;0.70;0.70;;;;;;;0.67;74.61;99039.25;4452976;32;33639;-75
2023/03/28 02:27:46;;;;;;;0.70;0.70;;;;;;;0.76;74.50;99044.62;4453199;32;34529;-75
2023/03/28 02:30:15;;;;;;;0.70;0.70;;;;;;;0.62;75.46;99045.94;4453070;32;35070;-75
2023/03/28 02:32:48;;;;;;;1.10;1.10;;;;;;;0.55;75.76;99045.81;4453053;32;34550;-75
2023/03/28 02:35:23;;;;;;;0.70;0.70;;;;;;;0.62;75.54;99035.69;4454313;32;33449;-75
2023/03/28 02:38:21;;;;;;;0.70;0.70;;;;;;;0.88;74.17;99057.72;4453030;32;34793;-74
2023/03/28 02:41:08;;;;;;;0.70;0.70;;;;;;;0.76;75.55;99057.44;4453581;32;35003;-75
2023/03/28 02:43:41;;;;;;;0.70;0.70;;;;;;;0.72;76.14;99060.72;4454762;32;34375;-75
2023/03/28 02:46:30;;;;;;;0.73;0.73;;;;;;;0.77;75.77;99061.69;4455981;32;34093;-75
2023/03/28 02:49:11;;;;;;;0.70;0.70;;;;;;;0.83;74.89;99073.78;4455867;32;33894;-75
2023/03/28 02:51:50;;;;;;;1.37;1.35;;;;;;;0.70;76.51;99072.63;4455899;32;34914;-75
2023/03/28 02:54:34;;;;;;;0.70;0.70;;;;;;;0.89;75.19;99081.66;4454938;32;35277;-74
2023/03/28 02:57:12;;;;;;;0.70;0.70;;;;;;;0.80;75.54;99095.09;4454852;32;33420;-74
2023/03/28 03:00:10;;;;;;;2.20;2.10;;;;;;;0.86;75.90;99092.66;4454865;32;34661;-74
2023/03/28 03:02:42;;;;;;;0.70;0.70;;;;;;;0.43;77.41;99096.75;4449759;32;35854;-75
2023/03/28 03:05:10;;;;;;;0.62;0.62;;;;;;;0.35;79.38;99093.09;4454574;32;34385;-75
2023/03/28 03:07:39;;;;;;;0.70;0.70;;;;;;;0.56;77.74;99098.81;4441923;32;31863;-74
2023/03/28 03:10:09;;;;;;;0.70;0.70;;;;;;;0.49;78.64;99102.00;4454595;32;33903;-75
2023/03/28 03:12:38;;;;;;;2.80;2.60;;;;;;;0.39;78.47;99110.31;4454515;32;34342;-75
2023/03/28 03:15:06;;;;;;;0.70;0.70;;;;;;;0.51;78.31;99122.53;4454510;32;34404;-75
2023/03/28 03:17:38;;;;;;;0.70;0.70;;;;;;;0.41;79.56;99118.91;4454694;32;32796;-74
2023/03/28 03:20:07;;;;;;;0.70;0.70;;;;;;;0.42;78.60;99115.47;4442115;32;34626;-74
2023/03/28 03:22:35;;;;;;;0.70;0.70;;;;;;;1.10;76.49;99109.50;4455879;32;34745;-75
2023/03/28 03:25:08;;;;;;;0.80;0.80;;;;;;;0.64;77.54;99126.31;4442081;32;34405;-75
2023/03/28 03:27:38;;;;;;;0.70;0.70;;;;;;;0.76;78.25;99136.88;4454475;32;33670;-75
2023/03/28 03:30:07;;;;;;;0.70;0.70;;;;;;;0.04;80.81;99128.12;4454299;32;33124;-75
2023/03/28 03:32:42;;;;;;;3.83;3.60;;;;;;;0.30;79.80;99127.97;4454355;32;33094;-75
2023/03/28 03:35:11;;;;;;;0.80;0.80;;;;;;;0.79;78.59;99136.94;4455437;32;34997;-75
2023/03/28 03:37:39;;;;;;;0.70;0.70;;;;;;;0.84;77.05;99132.78;4455363;32;34199;-75
2023/03/28 03:40:08;;;;;;;1.70;1.60;;;;;;;0.40;80.21;99129.94;4455399;32;33879;-75
2023/03/28 03:42:38;;;;;;;0.70;0.70;;;;;;;0.35;79.85;99139.19;4455691;32;35428;-75
2023/03/28 03:45:06;;;;;;;0.77;0.77;;;;;;;0.63;78.67;99134.81;4454370;32;34435;-75
2023/03/28 03:47:35;;;;;;;1.45;1.40;;;;;;;0.74;78.28;99139.41;4454550;32;32470;-74
2023/03/28 03:50:04;;;;;;;1.95;1.45;;;;;;;0.55;79.13;99150.84;4455742;32;34710;-75
2023/03/28 03:52:32;;;;;;;1.83;1.75;;;;;;;0.98;77.33;99147.66;4454309;32;35177;-75
2023/03/28 03:55:00;;;;;;;0.70;0.70;;;;;;;0.51;79.16;99151.62;4455593;32;34587;-75
2023/03/28 03:57:30;;;;;;;0.80;0.80;;;;;;;0.55;78.88;99158.53;4454318;32;32454;-75
2023/03/28 03:59:58;;;;;;;0.80;0.80;;;;;;;0.79;77.92;99154.87;4455612;32;34595;-75
2023/03/28 04:02:27;;;;;;;0.70;0.70;;;;;;;0.50;78.99;99165.25;4455620;32;35066;-75
2023/03/28 04:04:56;;;;;;;0.75;0.75;;;;;;;0.49;78.88;99166.06;4455582;32;34431;-75
2023/03/28 04:07:24;;;;;;;0.80;0.80;;;;;;;0.69;78.58;99173.38;4455578;32;34254;-75
2023/03/28 04:09:52;;;;;;;1.37;1.33;;;;;;;0.39;80.37;99176.91;4455481;32;34687;-75
2023/03/28 04:12:24;;;;;;;0.80;0.80;;;;;;;0.23;80.21;99180.72;4455265;32;35015;-75
2023/03/28 04:14:53;;;;;;;1.35;1.35;;;;;;;0.48;79.48;99182.25;4455412;32;34413;-75
2023/03/28 04:17:28;;;;;;;0.70;0.70;;;;;;;0.23;79.96;99190.09;4454287;32;33472;-75
2023/03/28 04:19:57;;;;;;;0.80;0.80;;;;;;;0.37;79.27;99192.22;4454387;32;33828;-75
2023/03/28 04:22:28;;;;;;;0.80;0.80;;;;;;;0.91;77.24;99198.75;4454240;32;34345;-75
2023/03/28 04:24:56;;;;;;;0.90;0.90;;;;;;;0.28;79.82;99199.66;4455216;32;34414;-74
2023/03/28 04:27:31;;;;;;;0.77;0.77;;;;;;;0.96;77.46;99192.91;4455472;32;34268;-75
2023/03/28 04:30:00;;;;;;;0.80;0.80;;;;;;;0.66;77.89;99201.53;4455405;32;33854;-74
2023/03/28 04:32:34;;;;;;;0.73;0.73;;;;;;;0.72;77.89;99204.22;4455345;32;35195;-74
2023/03/28 04:35:03;;;;;;;1.27;1.27;;;;;;;0.52;77.73;99209.69;4453915;32;32933;-75
2023/03/28 04:37:32;;;;;;;0.80;0.80;;;;;;;0.54;77.95;99217.44;4455283;32;33389;-75
2023/03/28 04:40:01;;;;;;;0.80;0.80;;;;;;;0.56;78.33;99215.75;4455359;32;34720;-74
2023/03/28 04:42:31;;;;;;;0.80;0.80;;;;;;;0.48;78.39;99218.13;4453860;32;33781;-75
2023/03/28 04:45:00;;;;;;;0.80;0.80;;;;;;;0.54;77.71;99223.41;4454238;32;34675;-74
2023/03/28 04:47:28;;;;;;;1.37;1.15;;;;;;;0.75;77.25;99220.56;4455284;32;33062;-74
2023/03/28 04:49:57;;;;;;;0.90;0.90;;;;;;;0.69;77.04;99229.78;4454172;32;33957;-74
2023/03/28 04:52:25;;;;;;;0.80;0.80;;;;;;;1.06;75.26;99228.16;4455174;32;35238;-75
2023/03/28 04:54:54;;;;;;;1.08;1.08;;;;;;;0.62;76.17;99227.88;4453779;32;34059;-75
2023/03/28 04:57:22;;;;;;;0.80;0.80;;;;;;;1.20;74.67;99231.09;4455169;32;34240;-74
2023/03/28 04:59:51;;;;;;;0.70;0.70;;;;;;;0.94;74.87;99239.84;4455136;32;34666;-75
2023/03/28 05:02:19;;;;;;;1.10;1.10;;;;;;;0.99;74.83;99236.53;4455195;32;35170;-75
2023/03/28 05:04:49;;;;;;;0.70;0.70;;;;;;;0.89;75.02;99241.44;4453559;32;34550;-75
2023/03/28 05:07:18;;;;;;;0.73;0.73;;;;;;;0.84;75.80;99240.44;4455232;32;33338;-74
2023/03/28 05:09:46;;;;;;;0.70;0.70;;;;;;;1.31;73.76;99245.91;4455210;32;33796;-74
2023/03/28 05:12:14;;;;;;;0.70;0.70;;;;;;;1.60;73.70;99252.59;4455153;32;35106;-74
2023/03/28 05:14:47;;;;;;;0.70;0.70;;;;;;;2.58;67.96;99253.87;4454793;32;34445;-74
2023/03/28 05:17:15;;;;;;;0.98;0.98;;;;;;;4.17;62.43;99247.94;4454804;32;33439;-75
2023/03/28 05:19:44;;;;;;;0.75;0.75;;;;;;;4.91;58.41;99245.38;4455013;32;34524;-75
2023/03/28 05:22:12;;;;;;;0.60;0.60;;;;;;;5.91;55.80;99248.78;4453817;32;35152;-75
2023/03/28 05:24:40;;;;;;;0.60;0.60;;;;;;;5.98;54.70;99249.72;4440878;32;33933;-74
2023/03/28 05:27:10;;;;;;;0.60;0.60;;;;;;;6.95;51.55;99258.81;4454974;32;34213;-75
2023/03/28 05:29:38;;;;;;;0.60;0.60;;;;;;;5.86;53.49;99258.25;4454736;32;34694;-74
2023/03/28 05:32:07;;;;;;;0.50;0.50;;;;;;;6.11;53.04;99266.22;4453838;32;35011;-75
2023/03/28 05:34:36;;;;;;;0.60;0.60;;;;;;;6.43;53.33;99268.97;4454968;32;34527;-75
2023/03/28 05:37:04;;;;;;;0.60;0.60;;;;;;;6.34;52.47;99268.91;4453530;32;32099;-74
2023/03/28 05:39:32;;;;;;;0.60;0.60;;;;;;;6.61;51.74;99273.34;4454839;32;34834;-75
2023/03/28 05:42:01;;;;;;;0.60;0.60;;;;;;;6.68;51.93;99269.06;4454802;32;35025;-74
2023/03/28 05:44:29;;;;;;;0.70;0.70;;;;;;;7.07;51.07;99277.81;4454528;32;34049;-75
2023/03/28 05:46:58;;;;;;;0.60;0.60;;;;;;;6.31;53.52;99271.47;4453681;32;34307;-74
2023/03/28 05:49:26;;;;;;;0.60;0.60;;;;;;;5.75;54.17;99277.97;4435497;32;175320;-74
2023/03/28 05:51:54;;;;;;;0.60;0.60;;;;;;;4.89;56.90;99283.22;4454263;32;35032;-74
2023/03/28 05:54:22;;;;;;;0.80;0.80;;;;;;;4.74;58.05;99287.31;4454337;32;35143;-75
2023/03/28 05:56:51;;;;;;;0.50;0.50;;;;;;;5.05;56.83;99285.09;4454723;32;33499;-74
2023/03/28 05:59:23;;;;;;;0.55;0.55;;;;;;;4.98;57.31;99285.88;4454647;32;33838;-74
2023/03/28 06:01:51;;;;;;;0.60;0.60;;;;;;;4.78;58.31;99290.78;4453282;32;35408;-75
2023/03/28 06:04:21;;;;;;;0.70;0.70;;;;;;;4.35;58.69;99296.28;4440601;32;34452;-75
2023/03/28 06:06:50;;;;;;;0.60;0.60;;;;;;;4.76;59.10;99292.50;4454660;32;33548;-75
2023/03/28 06:09:18;;;;;;;0.75;0.75;;;;;;;4.54;59.29;99305.13;4453101;32;34344;-74
2023/03/28 06:11:47;;;;;;;0.77;0.77;;;;;;;4.23;61.11;99311.56;4453144;32;35042;-75
2023/03/28 06:14:15;;;;;;;1.05;1.05;;;;;;;4.58;60.64;99312.91;4454263;32;35133;-74
2023/03/28 06:16:43;;;;;;;1.45;1.45;;;;;;;4.67;59.21;99313.88;4453295;32;33475;-74
2023/03/28 06:19:12;;;;;;;0.50;0.50;;;;;;;5.01;59.26;99316.00;4454283;32;34403;-77
2023/03/28 06:21:47;;;;;;;0.60;0.60;;;;;;;4.83;59.19;99326.97;4454325;32;34995;-74
2023/03/28 06:24:16;;;;;;;1.12;1.12;;;;;;;4.73;59.69;99329.44;4454042;32;34942;-74
2023/03/28 06:26:45;;;;;;;0.60;0.60;;;;;;;4.86;59.13;99333.03;4453257;32;33337;-75
2023/03/28 06:29:14;;;;;;;0.75;0.75;;;;;;;5.25;58.24;99338.63;4454296;32;34389;-75
2023/03/28 06:31:43;;;;;;;0.60;0.60;;;;;;;5.25;58.71;99338.63;4453104;32;35059;-75
2023/03/28 06:34:11;;;;;;;0.60;0.60;;;;;;;5.72;56.96;99340.81;4452914;32;34477;-74
2023/03/28 06:36:41;;;;;;;0.60;0.60;;;;;;;6.10;56.50;99353.22;4453058;32;32294;-74
2023/03/28 06:39:10;;;;;;;0.50;0.50;;;;;;;5.61;57.61;99353.66;4454075;32;33998;-75
2023/03/28 06:41:38;;;;;;;0.60;0.60;;;;;;;5.12;58.48;99358.31;4440264;32;34963;-75
2023/03/28 06:44:06;;;;;;;0.50;0.50;;;;;;;4.95;59.13;99365.81;4452690;32;34520;-74
2023/03/28 06:46:36;;;;;;;0.50;0.50;;;;;;;6.21;56.56;99361.03;4453955;32;33487;-75
2023/03/28 06:49:05;;;;;;;0.50;0.50;;;;;;;5.78;56.86;99371.88;4452952;32;34649;-75
2023/03/28 06:51:35;;;;;;;0.50;0.50;;;;;;;5.85;57.75;99373.66;4452647;32;35081;-75
2023/03/28 06:54:04;;;;;;;0.50;0.50;;;;;;;5.98;57.13;99376.37;4452800;32;35172;-74
2023/03/28 06:56:32;;;;;;;0.50;0.50;;;;;;;7.03;54.50;99372.72;4453581;32;33496;-74
2023/03/28 06:59:01;;;;;;;0.50;0.50;;;;;;;5.67;56.76;99383.84;4453712;32;33768;-75
2023/03/28 07:01:30;;;;;;;0.50;0.50;;;;;;;5.81;56.39;99371.91;4452563;32;35032;-76
2023/03/28 07:04:00;;;;;;;0.77;0.75;;;;;;;6.11;57.88;99379.94;4452668;32;34372;-74
2023/03/28 07:06:29;;;;;;;2.67;2.47;;;;;;;6.41;56.34;99374.13;4453869;32;32528;-75
2023/03/28 07:08:58;;;;;;;0.65;0.65;;;;;;;6.82;55.81;99371.75;4439657;32;32416;-75
2023/03/28 07:11:28;;;;;;;0.50;0.50;;;;;;;7.28;54.35;99378.00;4452612;32;35048;-74
2023/03/28 07:13:57;;;;;;;0.50;0.50;;;;;;;6.59;54.73;99376.81;4452097;32;34567;-75
2023/03/28 07:16:25;;;;;;;0.80;0.80;;;;;;;5.38;56.83;99386.97;4452217;32;32871;-74
2023/03/28 07:18:53;;;;;;;0.60;0.60;;;;;;;5.04;56.54;99384.00;4452104;32;33911;-75
2023/03/28 07:21:21;;;;;;;1.30;1.17;;;;;;;4.98;58.04;99383.03;4452278;32;35035;-74
2023/03/28 07:23:53;;;;;;;0.50;0.50;;;;;;;4.67;58.95;99396.41;4453618;32;34385;-74
2023/03/28 07:26:21;;;;;;;0.60;0.60;;;;;;;5.38;57.62;99396.44;4452649;32;34268;-75
2023/03/28 07:28:52;;;;;;;0.50;0.50;;;;;;;4.33;59.01;99400.22;4455580;32;33988;-76
2023/03/28 07:31:20;;;;;;;0.50;0.50;;;;;;;4.37;61.07;99407.16;4454580;32;35129;-75
2023/03/28 07:33:49;;;;;;;0.60;0.60;;;;;;;4.49;59.70;99402.19;4454596;32;35260;-76
2023/03/28 07:36:27;;;;;;;0.50;0.50;;;;;;;4.37;60.20;99408.00;4454254;32;33378;-89
2023/03/28 07:38:56;;;;;;;0.60;0.60;;;;;;;4.21;60.24;99408.63;4455764;32;34092;-76
2023/03/28 07:41:25;;;;;;;0.50;0.50;;;;;;;3.95;60.46;99393.63;4455920;32;35822;-75
2023/03/28 07:43:53;;;;;;;0.60;0.60;;;;;;;4.33;61.25;99406.25;4455901;32;35235;-75
2023/03/28 07:46:22;;;;;;;0.50;0.50;;;;;;;4.72;59.81;99415.41;4452872;32;33499;-77
2023/03/28 07:48:51;;;;;;;0.50;0.50;;;;;;;4.18;61.27;99385.38;4453890;32;33832;-74
2023/03/28 07:51:19;;;;;;;0.60;0.60;;;;;;;4.84;60.01;99400.97;4468829;32;35171;-75
2023/03/28 07:53:47;;;;;;;0.68;0.68;;;;;;;5.32;59.51;99402.41;4470640;32;35282;-77
2023/03/28 07:56:16;;;;;;;0.50;0.50;;;;;;;5.36;59.21;99404.16;4456792;32;33624;-75
2023/03/28 07:58:45;;;;;;;0.62;0.62;;;;;;;5.58;58.49;99400.09;4469653;32;34010;-75
2023/03/28 08:01:17;;;;;;;0.93;0.93;;;;;;;5.72;57.67;99392.50;4470604;32;35111;-75
2023/03/28 08:03:46;;;;;;;0.50;0.50;;;;;;;5.19;58.78;99398.81;4457355;32;33643;-75
2023/03/28 08:06:16;;;;;;;0.50;0.50;;;;;;;5.38;59.15;99397.28;4470707;32;33476;-74
2023/03/28 08:08:59;;;;;;;1.08;1.08;;;;;;;5.30;57.43;99398.94;4471164;32;34717;-74
2023/03/28 08:11:28;;;;;;;0.50;0.50;;;;;;;5.60;58.16;99394.97;4471054;32;35749;-75
2023/03/28 08:13:57;;;;;;;0.65;0.65;;;;;;;5.44;56.48;99399.09;4457006;32;34987;-74
2023/03/28 08:16:28;;;;;;;0.60;0.60;;;;;;;5.02;57.58;99396.03;4470700;32;33704;-75
2023/03/28 08:18:57;;;;;;;0.50;0.50;;;;;;;4.81;59.12;99400.91;4470750;32;33929;-76
2023/03/28 08:21:38;;;;;;;0.80;0.80;;;;;;;4.82;59.19;99405.19;4469943;32;35044;-76
2023/03/28 08:24:08;;;;;;;0.50;0.50;;;;;;;5.12;54.94;99395.28;4456665;32;34483;-76
2023/03/28 08:26:37;;;;;;;0.50;0.50;;;;;;;5.68;55.21;99411.38;4470930;32;32732;-76
2023/03/28 08:29:08;;;;;;;0.77;0.65;;;;;;;6.28;54.53;99390.41;4469438;32;33668;-78
2023/03/28 08:31:37;;;;;;;0.50;0.50;;;;;;;6.12;54.25;99392.00;4470826;32;35183;-77
2023/03/28 08:34:05;;;;;;;0.50;0.50;;;;;;;6.59;53.13;99400.09;4470858;32;34795;-74
2023/03/28 08:36:34;;;;;;;0.50;0.50;;;;;;;6.95;53.25;99387.34;4470941;32;33544;-76
2023/03/28 08:39:04;;;;;;;0.50;0.50;;;;;;;6.93;53.85;99386.47;4469958;32;33868;-75
2023/03/28 08:41:47;;;;;;;0.60;0.60;;;;;;;7.79;52.61;99387.59;4470936;32;35045;-77
2023/03/28 08:44:41;;;;;;;0.50;0.50;;;;;;;8.61;48.48;99387.62;4469754;32;35194;-74
2023/03/28 08:47:12;;;;;;;0.50;0.50;;;;;;;7.77;50.01;99391.06;4470850;32;33544;-75
2023/03/28 08:49:46;;;;;;;0.55;0.55;;;;;;;7.65;48.86;99388.44;4470830;32;34827;-76
2023/03/28 08:52:17;;;;;;;0.50;0.50;;;;;;;8.05;48.33;99376.41;4469115;32;36102;-76
2023/03/28 08:55:00;;;;;;;0.50;0.50;;;;;;;7.81;49.64;99372.06;4470576;32;34561;-74
2023/03/28 08:57:32;;;;;;;0.50;0.50;;;;;;;7.06;49.92;99374.44;4469655;32;34290;-75
2023/03/28 09:00:13;;;;;;;0.50;0.50;;;;;;;6.98;50.92;99375.28;4470504;32;33821;-76
2023/03/28 09:02:42;;;;;;;0.50;0.50;;;;;;;6.22;51.57;99368.81;4470468;32;35132;-77
2023/03/28 09:05:14;;;;;;;0.93;0.93;;;;;;;5.57;54.86;99388.03;4469446;32;35176;-75
2023/03/28 09:08:16;;;;;;;0.50;0.50;;;;;;;5.86;54.29;99388.31;4469698;32;33619;-73
2023/03/28 09:10:58;;;;;;;0.50;0.50;;;;;;;7.04;52.54;99387.38;4469543;32;34040;-76
2023/03/28 09:13:57;;;;;;;0.50;0.50;;;;;;;6.46;52.31;99390.53;4469307;32;36098;-76
2023/03/28 09:16:56;;;;;;;0.60;0.60;;;;;;;5.96;53.08;99391.87;4469554;32;35288;-76
2023/03/28 09:19:43;;;;;;;0.50;0.50;;;;;;;6.25;52.32;99384.34;4470260;32;33518;-77
2023/03/28 09:22:31;;;;;;;0.50;0.50;;;;;;;7.20;52.53;99393.53;4470606;32;34608;-75
2023/03/28 09:25:05;;;;;;;0.50;0.50;;;;;;;8.44;51.55;99395.41;4470267;32;35756;-76
2023/03/28 09:27:39;;;;;;;0.50;0.50;;;;;;;7.60;49.28;99398.78;4470709;32;34591;-75
2023/03/28 09:30:25;;;;;;;0.80;0.80;;;;;;;6.63;53.29;99412.19;4470580;32;33472;-75
2023/03/28 09:32:58;;;;;;;0.85;0.85;;;;;;;6.76;54.26;99435.56;4470544;32;33888;-73
2023/03/28 09:35:27;;;;;;;0.50;0.50;;;;;;;6.80;56.29;99434.75;4456710;32;34989;-76
2023/03/28 09:38:02;;;;;;;0.52;0.52;;;;;;;6.39;55.97;99435.34;4469395;32;34301;-75
2023/03/28 09:40:33;;;;;;;0.50;0.50;;;;;;;6.47;56.17;99435.38;4469226;32;33410;-78
2023/03/28 09:43:23;;;;;;;0.50;0.50;;;;;;;6.14;58.18;99439.41;4469301;32;32553;-76
2023/03/28 09:46:01;;;;;;;0.50;0.50;;;;;;;6.98;56.49;99437.41;4469423;32;35998;-77
2023/03/28 09:48:35;;;;;;;0.50;0.50;;;;;;;6.90;56.85;99420.13;4469367;32;34569;-75
2023/03/28 09:51:06;;;;;;;0.50;0.50;;;;;;;7.63;55.16;99406.59;4469100;32;33457;-77
2023/03/28 09:53:36;;;;;;;0.50;0.50;;;;;;;7.66;55.01;99414.37;4456176;32;32328;-76
2023/03/28 09:56:17;;;;;;;0.57;0.57;;;;;;;8.94;52.46;99384.94;4470353;32;35016;-74
2023/03/28 09:58:50;;;;;;;0.50;0.50;;;;;;;8.95;49.89;99392.72;4469154;32;34362;-75
2023/03/28 10:01:31;;;;;;;0.40;0.40;;;;;;;8.97;50.09;99380.59;4470300;32;33639;-77
2023/03/28 10:04:27;;;;;;;1.05;0.82;;;;;;;8.68;47.82;99391.94;4470239;32;34142;-76
2023/03/28 10:07:16;;;;;;;0.93;0.82;;;;;;;7.99;49.45;99381.56;4459886;32;35292;-75
2023/03/28 10:09:54;;;;;;;0.50;0.50;;;;;;;7.77;49.97;99391.06;4469073;32;34481;-75
2023/03/28 10:12:37;;;;;;;0.50;0.50;;;;;;;6.90;48.98;99382.16;4469109;32;33456;-77
2023/03/28 10:15:34;;;;;;;0.60;0.60;;;;;;;7.02;48.68;99378.75;4468730;32;33909;-77
2023/03/28 10:18:18;;;;;;;0.50;0.50;;;;;;;8.14;46.37;99386.75;4469075;32;33828;-77
2023/03/28 10:21:01;;;;;;;0.50;0.50;;;;;;;9.48;42.95;99383.81;4469681;32;34390;-75
2023/03/28 10:23:29;;;;;;;0.40;0.40;;;;;;;10.78;41.46;99383.66;4468693;32;34053;-77
2023/03/28 10:26:01;;;;;;;1.42;1.20;;;;;;;11.66;39.98;99382.50;4469909;32;33168;-77
2023/03/28 10:28:32;;;;;;;0.45;0.45;;;;;;;11.34;37.95;99385.59;4455792;32;33774;-76
2023/03/28 10:31:03;;;;;;;0.40;0.40;;;;;;;10.19;38.73;99395.47;4468740;32;34506;-76
2023/03/28 10:33:35;;;;;;;1.10;1.10;;;;;;;8.80;39.44;99398.81;4469882;32;32691;-77
2023/03/28 10:36:11;;;;;;;0.75;0.75;;;;;;;7.13;41.70;99397.81;4468613;32;33898;-75
2023/03/28 10:38:47;;;;;;;0.50;0.50;;;;;;;6.89;41.55;99398.53;4468496;32;35914;-74
2023/03/28 10:41:24;;;;;;;0.62;0.62;;;;;;;6.48;44.44;99401.75;4469680;32;34369;-74
2023/03/28 10:43:56;;;;;;;0.50;0.50;;;;;;;6.88;47.24;99398.53;4469716;32;34395;-74
2023/03/28 10:46:35;;;;;;;0.50;0.50;;;;;;;7.30;51.74;99410.78;4469411;32;33924;-75
2023/03/28 10:49:11;;;;;;;0.75;0.75;;;;;;;9.30;49.19;99402.97;4468632;32;35083;-74
2023/03/28 10:51:42;;;;;;;0.40;0.40;;;;;;;10.20;48.85;99394.56;4468245;32;34451;-74
2023/03/28 10:54:16;;;;;;;0.50;0.50;;;;;;;10.82;46.99;99385.34;4468411;32;33513;-74
2023/03/28 10:56:54;;;;;;;0.40;0.40;;;;;;;11.44;44.45;99389.78;4468096;32;34104;-74
2023/03/28 10:59:41;;;;;;;0.40;0.40;;;;;;;11.77;42.99;99382.38;4468228;32;35073;-74
2023/03/28 11:02:25;;;;;;;0.30;0.30;;;;;;;12.73;40.16;99378.19;4470235;32;34531;-75
2023/03/28 11:05:01;;;;;;;0.40;0.40;;;;;;;11.81;39.14;99378.84;4470087;32;33723;-75
2023/03/28 11:07:32;;;;;;;0.35;0.35;;;;;;;12.31;38.67;99387.62;4470584;32;33990;-74
2023/03/28 11:10:08;;;;;;;0.52;0.40;;;;;;;14.33;37.71;99387.75;4471493;32;34942;-74
2023/03/28 11:13:04;;;;;;;0.40;0.40;;;;;;;13.42;35.14;99376.81;4471462;32;34370;-74
2023/03/28 11:15:59;;;;;;;0.40;0.40;;;;;;;10.86;38.74;99388.75;4471624;32;34164;-74
2023/03/28 11:18:46;;;;;;;0.40;0.40;;;;;;;9.43;37.82;99387.31;4457282;32;32339;-74
2023/03/28 11:21:40;;;;;;;0.40;0.40;;;;;;;8.60;41.99;99391.06;4471143;32;35812;-75
2023/03/28 11:24:23;;;;;;;0.40;0.40;;;;;;;9.77;41.46;99385.34;4471203;32;34375;-74
2023/03/28 11:26:57;;;;;;;0.40;0.40;;;;;;;9.27;41.75;99386.53;4470358;32;34251;-74
2023/03/28 11:29:48;;;;;;;0.40;0.40;;;;;;;11.61;40.24;99383.47;4471479;32;34949;-72
2023/03/28 11:32:43;;;;;;;0.40;0.40;;;;;;;11.24;36.22;99378.75;4470179;32;35111;-75
2023/03/28 11:35:21;;;;;;;0.60;0.60;;;;;;;10.02;40.95;99398.19;4471249;32;35178;-74
2023/03/28 11:38:03;;;;;;;0.40;0.40;;;;;;;9.72;41.63;99392.31;4470311;32;33376;-75
2023/03/28 11:40:53;;;;;;;0.50;0.50;;;;;;;8.59;43.37;99406.63;4471232;32;33803;-76
2023/03/28 11:43:34;;;;;;;0.40;0.40;;;;;;;7.92;44.56;99403.16;4469964;32;36024;-74
2023/03/28 11:46:29;;;;;;;0.50;0.50;;;;;;;9.47;44.20;99412.41;4457504;32;35146;-74
2023/03/28 11:49:09;;;;;;;0.40;0.40;;;;;;;11.22;41.79;99402.22;4471342;32;33563;-75
2023/03/28 11:51:46;;;;;;;0.40;0.40;;;;;;;10.85;43.42;99394.84;4469648;32;33802;-74
2023/03/28 11:54:19;;;;;;;0.40;0.40;;;;;;;10.94;37.92;99396.47;4471275;32;35651;-74
2023/03/28 11:56:52;;;;;;;0.40;0.40;;;;;;;9.12;41.22;99395.22;4471292;32;34454;-74
2023/03/28 11:59:27;;;;;;;0.40;0.40;;;;;;;8.50;41.82;99404.94;4470135;32;33068;-74
2023/03/28 12:02:22;;;;;;;0.40;0.40;;;;;;;8.70;42.52;99387.59;4470907;32;34088;-75
2023/03/28 12:05:23;;;;;;;0.88;0.88;;;;;;;8.89;43.89;99403.09;4462991;32;34939;-75
2023/03/28 12:08:16;;;;;;;0.40;0.40;;;;;;;9.15;42.52;99399.56;4469754;32;34430;-75
2023/03/28 12:10:49;;;;;;;0.45;0.45;;;;;;;9.25;41.46;99398.66;4470027;32;33077;-75
2023/03/28 12:13:26;;;;;;;0.40;0.40;;;;;;;9.27;40.98;99378.72;4468913;32;34001;-73
2023/03/28 12:15:58;;;;;;;0.40;0.40;;;;;;;9.48;38.94;99382.97;4470933;32;35794;-73